Time;durP1;ratioP1;P1;durP2;ratioP2;P2;SDS_P1;SDS_P2;PMS_P1;PMS_P2;Temp;Humidity;BMP_temperature;BMP_pressure;BME280_temperature;BME280_humidity;BME280_pressure;Samples;Min_cycle;Max_cycle;Signal;HPM_P1;HPM_P2
2021/06/29 00:00:20;;;;;;;16.40;7.43;;;20.30;1.00;;;;;;5057877;28;20944;-74
2021/06/29 00:02:46;;;;;;;10.00;6.97;;;20.20;1.00;;;;;;5073216;28;20490;-74
2021/06/29 00:05:20;;;;;;;10.23;6.43;;;20.20;1.00;;;;;;5055478;28;20551;-74
2021/06/29 00:08:07;;;;;;;9.00;6.57;;;20.20;1.00;;;;;;5062155;28;20410;-74
2021/06/29 00:10:38;;;;;;;11.43;6.57;;;20.20;1.00;;;;;;5065479;28;20413;-74
2021/06/29 00:13:05;;;;;;;12.93;7.53;;;20.20;1.00;;;;;;5071061;28;20387;-74
2021/06/29 00:15:31;;;;;;;11.20;7.57;;;20.20;1.00;;;;;;5072554;28;20414;-74
2021/06/29 00:17:57;;;;;;;9.87;7.77;;;20.20;1.00;;;;;;5071997;28;20425;-74
2021/06/29 00:20:27;;;;;;;12.90;8.80;;;20.20;1.00;;;;;;5074476;28;20419;-74
2021/06/29 00:23:14;;;;;;;18.07;8.83;;;20.20;1.00;;;;;;5054723;28;20418;-74
2021/06/29 00:25:40;;;;;;;11.20;8.83;;;20.20;1.00;;;;;;5054336;28;21053;-74
2021/06/29 00:28:08;;;;;;;9.43;8.43;;;20.20;1.00;;;;;;5059959;28;20420;-74
2021/06/29 00:30:38;;;;;;;10.00;8.00;;;20.20;1.00;;;;;;5053965;28;20386;-74
2021/06/29 00:33:08;;;;;;;10.60;8.30;;;20.20;1.00;;;;;;5055288;28;20506;-74
2021/06/29 00:35:38;;;;;;;9.43;8.40;;;20.20;1.00;;;;;;5062414;28;20413;-74
2021/06/29 00:38:26;;;;;;;10.13;8.40;;;20.20;1.00;;;;;;5060742;28;20395;-76
2021/06/29 00:40:56;;;;;;;15.10;8.93;;;20.10;1.00;;;;;;5053880;28;20420;-76
2021/06/29 00:43:26;;;;;;;10.70;8.50;;;20.10;1.00;;;;;;5054086;28;20442;-77
2021/06/29 00:45:52;;;;;;;9.47;8.10;;;20.00;1.00;;;;;;5053764;28;20468;-76
2021/06/29 00:48:26;;;;;;;14.97;9.43;;;20.00;1.00;;;;;;5053764;28;20788;-76
2021/06/29 00:54:26;;;;;;;12.30;8.00;;;20.00;1.00;;;;;;5053484;28;20496;-76
2021/06/29 00:56:56;;;;;;;10.17;8.50;;;20.00;1.00;;;;;;5053611;28;20410;-76
2021/06/29 00:59:26;;;;;;;12.50;9.13;;;19.90;1.00;;;;;;5053577;28;20392;-77
2021/06/29 01:01:52;;;;;;;14.90;8.40;;;19.90;1.00;;;;;;5062275;28;20439;-77
2021/06/29 01:04:33;;;;;;;10.00;8.43;;;19.80;1.00;;;;;;5060758;28;20423;-77
2021/06/29 01:06:59;;;;;;;15.37;9.00;;;19.80;1.00;;;;;;5072749;28;20198;-77
2021/06/29 01:09:39;;;;;;;13.70;9.00;;;19.70;1.00;;;;;;5073727;28;20731;-74
2021/06/29 01:12:08;;;;;;;14.20;9.00;;;19.70;1.00;;;;;;5070925;28;20442;-74
2021/06/29 01:14:34;;;;;;;10.63;8.60;;;19.60;1.00;;;;;;5073378;28;20486;-74
2021/06/29 01:17:04;;;;;;;11.43;8.77;;;19.60;1.00;;;;;;5065076;28;20987;-74
2021/06/29 01:19:44;;;;;;;15.10;8.70;;;19.50;1.00;;;;;;5053084;28;21129;-74
2021/06/29 01:22:11;;;;;;;14.70;8.83;;;19.50;1.00;;;;;;5056954;28;20422;-74
2021/06/29 01:24:37;;;;;;;13.03;8.20;;;19.50;1.00;;;;;;5073778;28;21013;-74
2021/06/29 01:32:27;;;;;;;13.27;8.57;;;19.40;1.00;;;;;;5054249;28;20380;-74
2021/06/29 01:34:53;;;;;;;16.33;8.30;;;19.40;1.00;;;;;;5062810;28;20413;-74
2021/06/29 01:37:20;;;;;;;14.87;8.80;;;;;;;;;;5053080;28;20402;-74
2021/06/29 01:39:53;;;;;;;16.03;8.53;;;19.30;1.00;;;;;;5065243;28;20966;-74
2021/06/29 01:42:19;;;;;;;13.93;9.07;;;19.30;1.00;;;;;;5072803;28;20407;-74
2021/06/29 01:44:45;;;;;;;20.87;8.97;;;;;;;;;;5070883;28;20452;-75
2021/06/29 01:47:24;;;;;;;9.93;8.53;;;19.20;1.00;;;;;;5069920;28;20547;-74
2021/06/29 01:49:50;;;;;;;10.50;8.00;;;19.20;1.00;;;;;;5053021;28;20397;-74
2021/06/29 01:52:16;;;;;;;15.30;8.67;;;19.10;1.00;;;;;;5052921;28;20420;-74
2021/06/29 01:54:50;;;;;;;16.93;8.80;;;19.10;1.00;;;;;;5053550;28;20425;-74
2021/06/29 01:57:18;;;;;;;17.90;9.00;;;19.10;1.00;;;;;;5052469;28;20228;-74
2021/06/29 01:59:56;;;;;;;19.63;8.43;;;19.00;1.00;;;;;;5053023;28;20573;-74
2021/06/29 02:02:22;;;;;;;14.60;8.67;;;19.00;1.00;;;;;;5052694;28;20923;-74
2021/06/29 02:04:50;;;;;;;13.53;9.07;;;19.00;1.00;;;;;;5068946;28;20450;-74
2021/06/29 02:07:16;;;;;;;18.27;8.50;;;;;;;;;;5074524;28;20153;-74
2021/06/29 02:09:44;;;;;;;11.73;8.27;;;18.90;1.00;;;;;;5077174;28;20393;-74
2021/06/29 02:12:14;;;;;;;15.30;9.40;;;18.80;1.00;;;;;;5076180;28;20878;-74
2021/06/29 02:14:40;;;;;;;11.83;9.33;;;;;;;;;;5076421;28;20409;-74
2021/06/29 02:17:06;;;;;;;13.40;9.30;;;18.80;1.00;;;;;;5074830;28;20495;-74
2021/06/29 02:19:32;;;;;;;13.37;9.17;;;18.80;1.00;;;;;;5056580;28;20824;-74
2021/06/29 02:21:58;;;;;;;11.07;8.30;;;18.80;1.00;;;;;;5058544;28;20178;-74
2021/06/29 02:24:27;;;;;;;18.53;9.20;;;18.70;1.00;;;;;;5077005;28;20802;-74
2021/06/29 02:26:52;;;;;;;13.10;8.80;;;18.70;1.00;;;;;;5057641;28;20614;-75
2021/06/29 02:29:18;;;;;;;16.10;9.10;;;18.70;1.00;;;;;;5056904;28;20566;-74
2021/06/29 02:31:44;;;;;;;15.63;9.40;;;18.70;1.00;;;;;;5056145;28;20177;-74
2021/06/29 02:34:10;;;;;;;12.53;8.87;;;;;;;;;;5068075;28;20189;-74
2021/06/29 02:36:36;;;;;;;15.10;9.43;;;18.70;1.00;;;;;;5075283;28;20853;-74
2021/06/29 02:39:26;;;;;;;12.40;8.83;;;18.70;1.00;;;;;;5076590;28;20532;-76
2021/06/29 02:42:02;;;;;;;11.30;8.87;;;18.80;1.00;;;;;;5075943;28;20205;-77
2021/06/29 02:44:34;;;;;;;14.53;9.57;;;18.80;1.00;;;;;;5074098;28;20782;-77
2021/06/29 02:47:09;;;;;;;17.33;9.37;;;18.80;1.00;;;;;;5075771;28;20451;-77
2021/06/29 02:49:34;;;;;;;13.17;8.53;;;18.80;1.00;;;;;;5075689;28;20369;-76
2021/06/29 02:52:10;;;;;;;16.70;8.90;;;18.80;1.00;;;;;;5075368;28;20420;-77
2021/06/29 02:54:50;;;;;;;26.30;9.70;;;18.80;1.00;;;;;;5060277;28;20701;-77
2021/06/29 02:57:20;;;;;;;19.97;8.90;;;18.80;1.00;;;;;;5055826;28;20420;-77
2021/06/29 02:59:50;;;;;;;20.73;8.93;;;18.80;1.00;;;;;;5054833;28;20537;-77
2021/06/29 03:02:16;;;;;;;19.40;7.87;;;18.80;1.00;;;;;;5055025;28;20387;-77
2021/06/29 03:04:42;;;;;;;10.17;7.90;;;18.80;1.00;;;;;;5055382;28;20445;-77
2021/06/29 03:07:09;;;;;;;11.40;7.90;;;18.80;1.00;;;;;;5054956;28;20174;-77
2021/06/29 03:10:26;;;;;;;11.23;7.73;;;18.80;1.00;;;;;;5055953;28;20217;-76
2021/06/29 03:13:26;;;;;;;9.87;7.60;;;18.80;1.00;;;;;;5055790;28;20474;-76
2021/06/29 03:15:51;;;;;;;14.00;8.20;;;18.80;1.00;;;;;;5058621;28;20905;-77
2021/06/29 03:18:26;;;;;;;14.83;8.93;;;18.80;1.00;;;;;;5073327;28;20477;-76
2021/06/29 03:21:20;;;;;;;14.87;8.37;;;18.80;1.00;;;;;;5074023;28;20173;-77
2021/06/29 03:23:56;;;;;;;19.67;8.63;;;18.80;1.00;;;;;;5054862;28;20457;-76
2021/06/29 03:26:22;;;;;;;15.90;8.33;;;18.80;1.00;;;;;;5058039;28;20424;-74
2021/06/29 03:28:48;;;;;;;13.30;9.30;;;18.80;1.00;;;;;;5064624;28;20387;-74
2021/06/29 03:31:14;;;;;;;15.57;9.83;;;18.90;1.00;;;;;;5075780;28;20362;-74
2021/06/29 03:33:44;;;;;;;12.37;9.43;;;18.80;1.00;;;;;;5067367;28;20793;-74
2021/06/29 03:36:12;;;;;;;12.93;9.17;;;18.80;1.00;;;;;;5062266;28;20502;-74
2021/06/29 03:38:37;;;;;;;14.30;9.60;;;18.80;1.00;;;;;;5073853;28;20409;-75
2021/06/29 03:41:03;;;;;;;16.47;9.67;;;18.90;1.00;;;;;;5075527;28;20871;-74
2021/06/29 03:43:33;;;;;;;18.70;10.17;;;18.90;1.00;;;;;;5074867;28;20185;-74
2021/06/29 03:46:00;;;;;;;10.80;8.67;;;18.90;1.00;;;;;;5066863;28;20170;-74
2021/06/29 03:48:25;;;;;;;14.87;9.40;;;18.90;1.00;;;;;;5060211;28;20408;-74
2021/06/29 03:50:51;;;;;;;19.37;10.50;;;18.90;1.00;;;;;;5056400;28;20420;-74
2021/06/29 03:53:23;;;;;;;25.90;10.30;;;19.00;1.00;;;;;;5054342;28;20232;-75
2021/06/29 03:56:23;;;;;;;14.40;8.53;;;19.10;1.00;;;;;;5053736;28;20228;-78
2021/06/29 04:02:10;;;;;;;15.80;9.60;;;19.00;1.00;;;;;;5054832;28;20719;-78
2021/06/29 04:05:08;;;;;;;12.73;9.17;;;19.10;1.00;;;;;;5053938;28;20511;-78
2021/06/29 04:10:56;;;;;;;12.13;8.10;;;19.10;1.00;;;;;;5054563;28;20439;-78
2021/06/29 04:13:26;;;;;;;16.83;8.80;;;19.10;1.00;;;;;;5054242;28;20409;-79
2021/06/29 04:19:14;;;;;;;12.33;8.80;;;19.20;1.00;;;;;;5054189;28;20504;-79
2021/06/29 04:22:14;;;;;;;11.63;8.23;;;19.20;1.00;;;;;;5053969;28;20498;-79
2021/06/29 04:28:02;;;;;;;13.20;8.03;;;19.50;1.00;;;;;;5053765;28;20907;-79
2021/06/29 04:33:49;;;;;;;12.07;8.40;;;19.60;1.00;;;;;;5053847;28;20312;-79
2021/06/29 04:36:26;;;;;;;12.17;7.53;;;19.60;1.00;;;;;;5061536;28;20489;-79
2021/06/29 04:39:44;;;;;;;9.87;8.13;;;19.70;1.00;;;;;;5073863;28;20165;-78
2021/06/29 04:42:10;;;;;;;16.33;8.20;;;19.70;1.00;;;;;;5054549;28;20368;-79
2021/06/29 04:44:39;;;;;;;16.33;8.70;;;;;;;;;;5054477;28;20515;-79
2021/06/29 04:47:46;;;;;;;11.40;8.17;;;19.80;1.00;;;;;;5072218;28;20466;-79
2021/06/29 04:53:56;;;;;;;9.83;8.30;;;19.80;1.00;;;;;;5067133;28;20436;-78
2021/06/29 04:56:22;;;;;;;8.80;7.60;;;;;;;;;;5056699;28;20464;-79
2021/06/29 05:02:20;;;;;;;8.80;7.70;;;19.90;1.00;;;;;;5068017;28;20415;-79
2021/06/29 05:05:14;;;;;;;14.40;8.00;;;19.90;1.00;;;;;;5072329;28;20987;-79
2021/06/29 05:11:02;;;;;;;15.20;7.80;;;19.90;1.00;;;;;;5053676;28;20504;-79
2021/06/29 05:16:51;;;;;;;9.80;7.73;;;;;;;;;;5059500;28;20421;-80
2021/06/29 05:19:44;;;;;;;12.90;7.50;;;19.90;1.00;;;;;;5057583;28;20431;-80
2021/06/29 05:22:10;;;;;;;9.67;8.00;;;19.90;1.00;;;;;;5059173;28;20444;-79
2021/06/29 05:24:44;;;;;;;13.03;7.57;;;19.90;1.00;;;;;;5065197;28;20483;-79
2021/06/29 05:27:10;;;;;;;18.10;7.93;;;;;;;;;;5073228;28;20170;-79
2021/06/29 05:29:36;;;;;;;12.20;7.43;;;20.00;1.00;;;;;;5063910;28;20443;-79
2021/06/29 05:32:14;;;;;;;10.00;7.27;;;20.10;1.00;;;;;;5064923;28;20836;-79
2021/06/29 05:35:14;;;;;;;13.53;8.33;;;20.10;1.00;;;;;;5061425;28;20183;-78
2021/06/29 05:37:44;;;;;;;14.80;7.77;;;20.10;1.00;;;;;;5060038;28;20436;-75
2021/06/29 05:40:10;;;;;;;16.13;8.10;;;20.20;1.00;;;;;;5052394;28;20435;-74
2021/06/29 05:42:36;;;;;;;16.03;7.83;;;20.10;1.00;;;;;;5064847;28;20425;-74
2021/06/29 05:45:04;;;;;;;11.53;6.80;;;20.20;1.00;;;;;;5065670;28;20251;-74
2021/06/29 05:47:32;;;;;;;12.80;7.00;;;20.30;1.00;;;;;;5071899;28;20155;-75
2021/06/29 05:49:57;;;;;;;11.80;6.70;;;20.30;1.00;;;;;;5053344;28;20408;-73
2021/06/29 05:52:23;;;;;;;8.30;5.83;;;20.40;1.00;;;;;;5052069;28;20409;-75
2021/06/29 05:54:49;;;;;;;10.20;7.03;;;20.40;1.00;;;;;;5052166;28;20529;-74
2021/06/29 05:57:15;;;;;;;8.33;6.20;;;20.40;1.00;;;;;;5063488;28;20185;-76
2021/06/29 05:59:41;;;;;;;6.40;5.30;;;20.40;1.00;;;;;;5065841;28;20183;-76
2021/06/29 06:02:08;;;;;;;9.37;6.07;;;20.50;1.00;;;;;;5052143;28;20398;-76
2021/06/29 06:04:34;;;;;;;9.80;5.80;;;20.50;1.00;;;;;;5051329;28;20484;-76
2021/06/29 06:07:00;;;;;;;8.97;6.90;;;;;;;;;;5054793;28;20411;-76
2021/06/29 06:09:26;;;;;;;7.13;6.03;;;20.70;1.00;;;;;;5064211;28;20843;-76
2021/06/29 06:11:51;;;;;;;8.57;6.37;;;20.80;1.00;;;;;;5070476;28;20427;-75
2021/06/29 06:14:17;;;;;;;8.73;6.00;;;20.90;99.90;;;;;;5051635;28;20179;-74
2021/06/29 06:16:43;;;;;;;13.83;7.00;;;21.00;99.90;;;;;;5054795;28;20185;-75
2021/06/29 06:19:09;;;;;;;10.33;5.87;;;;;;;;;;5052208;28;20278;-81
2021/06/29 06:21:34;;;;;;;10.10;6.23;;;21.20;99.90;;;;;;5053331;28;20228;-74
2021/06/29 06:24:00;;;;;;;6.33;5.53;;;21.20;99.90;;;;;;5060846;28;20519;-74
2021/06/29 06:26:25;;;;;;;20.23;7.17;;;21.30;99.90;;;;;;5056769;28;20187;-74
2021/06/29 06:28:51;;;;;;;8.83;6.67;;;21.40;99.90;;;;;;5069579;28;20170;-74
2021/06/29 06:31:17;;;;;;;10.77;6.77;;;21.40;99.90;;;;;;5070746;28;20164;-74
2021/06/29 06:33:42;;;;;;;8.20;6.10;;;21.50;99.90;;;;;;5070399;28;20156;-74
2021/06/29 06:36:08;;;;;;;9.70;6.50;;;21.60;99.90;;;;;;5070244;28;20173;-74
2021/06/29 06:38:34;;;;;;;12.60;7.17;;;21.80;99.90;;;;;;5064137;28;20176;-74
2021/06/29 06:41:00;;;;;;;12.80;6.37;;;22.00;99.90;;;;;;5060083;28;20435;-74
2021/06/29 06:43:25;;;;;;;8.90;6.37;;;22.10;99.90;;;;;;5070381;28;20166;-76
2021/06/29 06:45:56;;;;;;;14.43;6.63;;;22.30;99.90;;;;;;5070820;28;20269;-76
2021/06/29 06:48:22;;;;;;;9.73;6.10;;;22.30;99.90;;;;;;5070554;28;20170;-76
2021/06/29 06:50:48;;;;;;;8.80;6.50;;;22.40;99.90;;;;;;5070173;28;20986;-76
2021/06/29 06:53:14;;;;;;;12.20;6.83;;;22.50;99.90;;;;;;5073038;28;20166;-76
2021/06/29 06:55:40;;;;;;;9.57;7.07;;;22.50;99.90;;;;;;5074234;28;20251;-76
2021/06/29 06:58:06;;;;;;;11.80;7.13;;;22.60;99.90;;;;;;5073038;28;20419;-74
2021/06/29 07:00:32;;;;;;;12.03;7.20;;;22.60;99.90;;;;;;5072787;28;20379;-74
2021/06/29 07:02:57;;;;;;;12.03;6.40;;;22.70;99.90;;;;;;5074432;28;20170;-74
2021/06/29 07:05:23;;;;;;;17.30;7.93;;;22.70;99.90;;;;;;5072401;28;20538;-74
2021/06/29 07:07:49;;;;;;;16.57;7.43;;;22.80;99.90;;;;;;5053154;28;20170;-74
2021/06/29 07:10:15;;;;;;;13.70;7.87;;;23.00;99.90;;;;;;5054169;28;20866;-74
2021/06/29 07:12:41;;;;;;;12.20;7.07;;;23.30;99.90;;;;;;5053446;28;20180;-74
2021/06/29 07:15:08;;;;;;;13.63;8.17;;;23.30;99.90;;;;;;5053465;28;20809;-74
2021/06/29 07:17:35;;;;;;;13.33;7.70;;;23.30;99.90;;;;;;5063614;28;20171;-74
2021/06/29 07:20:02;;;;;;;11.05;8.80;;;23.50;99.90;;;;;;5059623;28;1110145;-74
2021/06/29 07:22:27;;;;;;;14.43;8.20;;;23.40;99.90;;;;;;5065424;28;20639;-74
2021/06/29 07:24:56;;;;;;;12.67;7.13;;;23.40;99.90;;;;;;5053847;28;20451;-74
2021/06/29 07:27:22;;;;;;;12.00;7.07;;;23.60;99.90;;;;;;5056320;28;20213;-76
2021/06/29 07:29:48;;;;;;;12.40;7.50;;;23.70;99.90;;;;;;5065084;28;20463;-76
2021/06/29 07:32:13;;;;;;;22.30;7.57;;;23.90;99.90;;;;;;5061929;28;20581;-76
2021/06/29 07:34:39;;;;;;;8.77;7.10;;;24.10;99.90;;;;;;5071864;28;20223;-76
2021/06/29 07:37:05;;;;;;;9.87;6.63;;;24.10;99.90;;;;;;5072612;28;20279;-76
2021/06/29 07:39:31;;;;;;;11.63;7.13;;;24.10;99.90;;;;;;5074139;28;20161;-76
2021/06/29 07:41:57;;;;;;;14.93;7.50;;;23.90;99.90;;;;;;5074381;28;20511;-75
2021/06/29 07:44:23;;;;;;;9.33;6.90;;;23.60;99.90;;;;;;5073473;28;20198;-75
2021/06/29 07:46:49;;;;;;;10.93;7.37;;;23.40;99.90;;;;;;5062080;28;20411;-75
2021/06/29 07:49:14;;;;;;;12.57;8.00;;;23.50;99.90;;;;;;5073637;28;20151;-76
2021/06/29 07:51:40;;;;;;;11.80;8.43;;;23.40;99.90;;;;;;5073372;28;20451;-75
2021/06/29 07:54:05;;;;;;;9.83;8.60;;;23.50;99.90;;;;;;5072907;28;20259;-75
2021/06/29 07:56:36;;;;;;;24.20;8.50;;;23.50;99.90;;;;;;5074227;28;20174;-76
2021/06/29 07:59:03;;;;;;;18.60;8.13;;;23.60;99.90;;;;;;5074422;28;20633;-75
2021/06/29 08:01:29;;;;;;;9.83;7.53;;;24.00;99.90;;;;;;5073432;28;20406;-76
2021/06/29 08:03:54;;;;;;;14.73;7.40;;;24.10;99.90;;;;;;5072722;28;20447;-76
2021/06/29 08:06:20;;;;;;;9.37;7.37;;;24.40;99.90;;;;;;5063837;28;20303;-76
2021/06/29 08:08:45;;;;;;;12.60;6.50;;;24.60;99.90;;;;;;5071184;28;20181;-76
2021/06/29 08:11:11;;;;;;;10.17;7.07;;;24.60;99.90;;;;;;5073155;28;20173;-76
2021/06/29 08:13:38;;;;;;;13.73;6.97;;;24.90;99.90;;;;;;5073204;28;20251;-73
2021/06/29 08:16:05;;;;;;;13.13;6.60;;;24.80;99.90;;;;;;5073603;28;20254;-74
2021/06/29 08:18:31;;;;;;;8.40;6.60;;;24.60;99.90;;;;;;5073058;28;20412;-73
2021/06/29 08:20:57;;;;;;;20.43;7.23;;;24.60;99.90;;;;;;5073232;28;20432;-73
2021/06/29 08:23:27;;;;;;;7.50;6.20;;;24.70;99.90;;;;;;5052678;28;20174;-73
2021/06/29 08:25:53;;;;;;;14.53;6.67;;;24.70;99.90;;;;;;5053225;28;20406;-73
2021/06/29 08:28:19;;;;;;;9.30;6.27;;;24.60;99.90;;;;;;5067929;28;20446;-73
2021/06/29 08:30:45;;;;;;;7.07;6.13;;;;;;;;;;5052824;28;20172;-73
2021/06/29 08:33:12;;;;;;;8.87;6.10;;;24.60;99.90;;;;;;5059307;28;20429;-73
2021/06/29 08:35:39;;;;;;;7.60;5.10;;;24.60;99.90;;;;;;5052773;28;20953;-73
2021/06/29 08:38:06;;;;;;;5.47;4.97;;;24.70;99.90;;;;;;5068279;28;20796;-73
2021/06/29 08:40:36;;;;;;;7.10;5.57;;;24.60;99.90;;;;;;5072566;28;20397;-74
2021/06/29 08:43:02;;;;;;;7.43;5.67;;;24.60;99.90;;;;;;5073312;28;20420;-76
2021/06/29 08:45:28;;;;;;;9.20;5.40;;;24.50;99.90;;;;;;5072810;28;20718;-76
2021/06/29 08:47:54;;;;;;;10.70;6.47;;;24.50;99.90;;;;;;5072192;28;20905;-75
2021/06/29 08:50:20;;;;;;;6.43;5.33;;;24.60;99.90;;;;;;5072516;28;20178;-76
2021/06/29 08:52:45;;;;;;;10.80;5.40;;;24.80;99.90;;;;;;5072314;28;20164;-77
2021/06/29 08:55:13;;;;;;;5.70;5.10;;;24.80;99.90;;;;;;5072823;28;20178;-76
2021/06/29 08:57:38;;;;;;;8.80;5.20;;;25.10;99.90;;;;;;5055774;28;20214;-75
2021/06/29 09:00:07;;;;;;;8.87;5.00;;;25.30;99.90;;;;;;5055908;28;20445;-76
2021/06/29 09:02:38;;;;;;;4.90;4.50;;;25.40;99.90;;;;;;5064443;28;20267;-76
2021/06/29 09:05:17;;;;;;;5.50;5.00;;;25.50;99.90;;;;;;5063431;28;20460;-76
2021/06/29 09:07:44;;;;;;;7.63;5.17;;;25.50;99.90;;;;;;5061804;28;20949;-76
2021/06/29 09:10:10;;;;;;;7.00;5.83;;;25.90;99.90;;;;;;5068975;28;20423;-76
2021/06/29 09:12:51;;;;;;;7.93;4.70;;;26.00;99.90;;;;;;5055502;28;20902;-75
2021/06/29 09:15:24;;;;;;;5.03;4.57;;;26.20;99.90;;;;;;5051810;28;20447;-73
2021/06/29 09:17:53;;;;;;;7.60;5.30;;;26.30;99.90;;;;;;5059702;28;20747;-74
2021/06/29 09:20:34;;;;;;;9.30;5.10;;;26.50;99.90;;;;;;5068698;28;20495;-74
2021/06/29 09:23:14;;;;;;;9.23;4.73;;;26.60;99.90;;;;;;5056237;28;20455;-74
2021/06/29 09:25:43;;;;;;;6.70;5.30;;;26.70;99.90;;;;;;5072100;28;20444;-73
2021/06/29 09:28:15;;;;;;;14.83;4.73;;;26.80;99.90;;;;;;5066453;28;20424;-76
2021/06/29 09:30:50;;;;;;;12.30;5.23;;;27.10;99.90;;;;;;5066617;28;20414;-76
2021/06/29 09:33:26;;;;;;;7.67;5.00;;;27.20;99.90;;;;;;5065952;28;20793;-82
2021/06/29 09:35:55;;;;;;;5.23;4.63;;;27.30;99.90;;;;;;5056644;28;20426;-82
2021/06/29 09:38:24;;;;;;;6.63;4.40;;;27.10;99.90;;;;;;5057888;28;20438;-82
2021/06/29 09:41:23;;;;;;;4.77;4.27;;;27.00;99.90;;;;;;5061288;28;20504;-83
2021/06/29 09:43:53;;;;;;;5.53;4.80;;;26.90;99.90;;;;;;5049636;28;20464;-81
2021/06/29 09:46:24;;;;;;;7.90;4.57;;;26.60;99.90;;;;;;5049302;28;20514;-82
2021/06/29 09:48:57;;;;;;;4.67;4.27;;;26.50;99.90;;;;;;5049399;28;20888;-82
2021/06/29 09:51:27;;;;;;;7.47;4.23;;;26.50;99.90;;;;;;5061826;28;20514;-82
2021/06/29 09:53:54;;;;;;;6.70;4.50;;;26.60;99.90;;;;;;5052616;28;20443;-82
2021/06/29 09:56:25;;;;;;;11.43;5.23;;;26.70;99.90;;;;;;5042995;28;20462;-77
2021/06/29 09:58:58;;;;;;;6.13;4.90;;;26.80;99.90;;;;;;5049435;28;20411;-74
2021/06/29 10:01:28;;;;;;;4.80;4.30;;;27.00;99.90;;;;;;5054978;28;20429;-74
2021/06/29 10:03:54;;;;;;;6.67;4.57;;;27.20;99.90;;;;;;5068644;28;20516;-74
2021/06/29 10:06:26;;;;;;;4.73;4.23;;;27.20;99.90;;;;;;5062277;28;20422;-74
2021/06/29 10:09:00;;;;;;;4.87;4.43;;;27.10;99.90;;;;;;5066305;28;20508;-74
2021/06/29 10:11:28;;;;;;;4.90;4.40;;;27.30;99.90;;;;;;5056019;28;20430;-74
2021/06/29 10:13:57;;;;;;;7.67;4.80;;;27.10;99.90;;;;;;5069060;28;20542;-74
2021/06/29 10:16:26;;;;;;;10.20;5.07;;;;;;;;;;5066653;28;20929;-73
2021/06/29 10:19:03;;;;;;;6.03;4.90;;;27.20;99.90;;;;;;5066024;28;20553;-73
2021/06/29 10:21:30;;;;;;;7.23;4.90;;;27.10;99.90;;;;;;5061528;28;20437;-73
2021/06/29 10:23:58;;;;;;;8.77;5.20;;;27.20;99.90;;;;;;5071649;28;20456;-73
2021/06/29 10:26:26;;;;;;;7.00;5.00;;;27.20;99.90;;;;;;5071413;28;20431;-73
2021/06/29 10:28:53;;;;;;;17.53;6.67;;;27.00;99.90;;;;;;5074112;28;20410;-76
2021/06/29 10:31:23;;;;;;;5.57;4.27;;;27.00;99.90;;;;;;5066164;28;20422;-76
2021/06/29 10:33:51;;;;;;;28.83;8.80;;;26.70;99.90;;;;;;5056036;28;20426;-76
2021/06/29 10:36:18;;;;;;;15.43;6.67;;;26.50;99.90;;;;;;5057931;28;20632;-76
2021/06/29 10:38:44;;;;;;;4.77;4.37;;;26.50;99.90;;;;;;5063630;28;20414;-76
2021/06/29 10:41:11;;;;;;;5.27;4.73;;;26.50;99.90;;;;;;5058217;28;20443;-76
2021/06/29 10:43:39;;;;;;;5.20;4.20;;;26.50;99.90;;;;;;5061917;28;20932;-73
2021/06/29 10:46:04;;;;;;;6.30;4.67;;;26.50;99.90;;;;;;5074035;28;20437;-73
2021/06/29 10:48:31;;;;;;;5.90;5.00;;;26.50;99.90;;;;;;5066606;28;20423;-73
2021/06/29 10:50:58;;;;;;;7.80;4.60;;;26.40;99.90;;;;;;5073997;28;20183;-73
2021/06/29 10:53:44;;;;;;;5.00;4.50;;;26.40;99.90;;;;;;5065880;28;20403;-73
2021/06/29 10:56:20;;;;;;;7.40;5.10;;;26.20;99.90;;;;;;5054309;28;20687;-73
2021/06/29 10:58:50;;;;;;;5.37;4.60;;;26.10;99.90;;;;;;5067761;28;20478;-73
2021/06/29 11:01:29;;;;;;;5.50;5.00;;;26.10;99.90;;;;;;5053506;28;20412;-73
2021/06/29 11:04:05;;;;;;;20.13;7.13;;;26.00;99.90;;;;;;5066832;28;20500;-74
2021/06/29 11:06:48;;;;;;;11.40;5.40;;;25.80;99.90;;;;;;5069809;28;20443;-74
2021/06/29 11:09:21;;;;;;;7.27;4.53;;;25.80;99.90;;;;;;5071364;28;20416;-74
2021/06/29 11:12:25;;;;;;;9.63;5.07;;;26.00;99.90;;;;;;5073886;28;20389;-74
2021/06/29 11:14:54;;;;;;;7.13;5.13;;;26.30;99.90;;;;;;5059418;28;20919;-74
2021/06/29 11:17:26;;;;;;;8.13;5.23;;;26.50;99.90;;;;;;5056287;28;20417;-74
2021/06/29 11:20:00;;;;;;;5.43;4.93;;;26.70;99.90;;;;;;5059774;28;20432;-75
2021/06/29 11:22:57;;;;;;;5.40;4.87;;;26.80;99.90;;;;;;5056383;28;20443;-75
2021/06/29 11:25:39;;;;;;;7.83;5.10;;;26.80;99.90;;;;;;5071293;28;20498;-75
2021/06/29 11:28:09;;;;;;;4.87;4.43;;;26.80;99.90;;;;;;5056413;28;20490;-74
2021/06/29 11:31:04;;;;;;;8.37;4.67;;;26.80;99.90;;;;;;5056146;28;20425;-74
2021/06/29 11:33:36;;;;;;;5.27;4.80;;;26.70;99.90;;;;;;5054281;28;20920;-74
2021/06/29 11:36:23;;;;;;;5.80;4.23;;;26.50;99.90;;;;;;5052081;28;20520;-75
2021/06/29 11:38:49;;;;;;;4.90;4.40;;;26.50;99.90;;;;;;5042964;28;20444;-75
2021/06/29 11:41:34;;;;;;;5.00;4.50;;;26.80;99.90;;;;;;5031179;28;20425;-74
2021/06/29 11:44:09;;;;;;;7.43;3.60;;;26.80;99.90;;;;;;5036109;28;20489;-75
2021/06/29 11:46:56;;;;;;;10.33;5.40;;;26.90;99.90;;;;;;5043962;28;20458;-74
2021/06/29 11:49:28;;;;;;;4.40;4.00;;;27.10;99.90;;;;;;5041167;28;20512;-75
2021/06/29 11:52:17;;;;;;;5.43;4.20;;;27.20;99.90;;;;;;5051550;28;20497;-74
2021/06/29 11:54:54;;;;;;;5.93;4.20;;;27.30;99.90;;;;;;5039186;28;20476;-74
2021/06/29 11:57:26;;;;;;;4.93;3.90;;;27.30;99.90;;;;;;5050556;28;20780;-74
2021/06/29 12:00:23;;;;;;;7.07;3.70;;;27.30;99.90;;;;;;5046718;28;20553;-76
2021/06/29 12:02:52;;;;;;;3.80;3.43;;;27.30;99.90;;;;;;5051426;28;20553;-77
2021/06/29 12:05:26;;;;;;;7.27;3.90;;;27.10;99.90;;;;;;5050417;28;20446;-77
2021/06/29 12:08:02;;;;;;;4.37;3.73;;;27.00;99.90;;;;;;5031758;28;20422;-77
2021/06/29 12:10:30;;;;;;;3.67;3.40;;;27.20;99.90;;;;;;5031255;28;20973;-77
2021/06/29 12:13:08;;;;;;;3.90;3.50;;;27.30;99.90;;;;;;5042744;28;20424;-76
2021/06/29 12:15:36;;;;;;;4.43;3.53;;;27.40;99.90;;;;;;5052261;28;20776;-74
2021/06/29 12:18:06;;;;;;;3.40;3.10;;;27.80;99.90;;;;;;5053160;28;20730;-74
2021/06/29 12:20:33;;;;;;;3.93;3.63;;;27.80;99.90;;;;;;5070188;28;20443;-74
2021/06/29 12:23:00;;;;;;;3.60;3.30;;;28.10;99.90;;;;;;5073353;28;20399;-74
2021/06/29 12:25:30;;;;;;;3.10;2.90;;;28.20;99.90;;;;;;5070098;28;20449;-74
2021/06/29 12:28:02;;;;;;;3.97;3.17;;;28.40;99.90;;;;;;5056346;28;20962;-73
2021/06/29 12:30:31;;;;;;;4.50;3.70;;;28.50;99.90;;;;;;5073472;28;20396;-73
2021/06/29 12:32:58;;;;;;;4.13;3.70;;;28.60;99.90;;;;;;5073041;28;20408;-73
2021/06/29 12:35:29;;;;;;;3.57;3.30;;;28.70;99.90;;;;;;5072337;28;20751;-73
2021/06/29 12:37:59;;;;;;;4.80;3.37;;;28.80;99.90;;;;;;5061015;28;20559;-73
2021/06/29 12:40:26;;;;;;;5.73;3.50;;;28.90;99.90;;;;;;5053320;28;20670;-74
2021/06/29 12:42:53;;;;;;;7.40;3.77;;;29.10;99.90;;;;;;5052680;28;20417;-74
2021/06/29 12:45:20;;;;;;;4.80;3.60;;;29.30;99.90;;;;;;5055263;28;20448;-76
2021/06/29 12:47:46;;;;;;;3.20;2.97;;;29.40;99.90;;;;;;5072846;28;20402;-76
2021/06/29 12:50:11;;;;;;;6.30;3.30;;;29.50;99.90;;;;;;5072017;28;20765;-76
2021/06/29 12:52:37;;;;;;;4.70;3.70;;;29.50;99.90;;;;;;5072926;28;20400;-76
2021/06/29 12:55:09;;;;;;;7.53;3.33;;;29.60;99.90;;;;;;5072941;28;20182;-76
2021/06/29 12:57:39;;;;;;;3.87;3.50;;;29.60;99.90;;;;;;5072273;28;20185;-76
2021/06/29 13:00:11;;;;;;;3.80;3.50;;;29.70;99.90;;;;;;5073226;28;20393;-76
2021/06/29 13:02:43;;;;;;;3.20;3.00;;;;;;;;;;5072672;28;20494;-75
2021/06/29 13:05:19;;;;;;;5.30;3.83;;;29.70;99.90;;;;;;5055865;28;20452;-76
2021/06/29 13:07:45;;;;;;;3.67;3.20;;;29.70;99.90;;;;;;5052201;28;20392;-76
2021/06/29 13:10:10;;;;;;;4.47;3.70;;;29.90;99.90;;;;;;5062768;28;20454;-77
2021/06/29 13:12:39;;;;;;;4.07;3.30;;;;;;;;;;5072146;28;20169;-79
2021/06/29 13:15:08;;;;;;;3.47;3.10;;;30.20;99.90;;;;;;5072601;28;20176;-76
2021/06/29 13:17:49;;;;;;;7.10;2.87;;;30.30;99.90;;;;;;5068865;28;20575;-76
2021/06/29 13:20:23;;;;;;;3.30;3.00;;;30.20;99.90;;;;;;5051621;28;20413;-76
2021/06/29 13:22:51;;;;;;;3.37;2.80;;;30.10;99.90;;;;;;5052400;28;20409;-76
2021/06/29 13:25:35;;;;;;;7.30;2.40;;;30.10;99.90;;;;;;5052054;28;20959;-76
2021/06/29 13:28:27;;;;;;;4.80;3.37;;;29.90;99.90;;;;;;5053746;28;20420;-77
2021/06/29 13:31:02;;;;;;;4.90;2.70;;;29.80;99.90;;;;;;5051882;28;20420;-76
2021/06/29 13:33:36;;;;;;;4.60;2.77;;;29.80;99.90;;;;;;5052259;28;20401;-76
2021/06/29 13:36:02;;;;;;;3.10;2.77;;;29.60;99.90;;;;;;5051825;28;20428;-76
2021/06/29 13:38:27;;;;;;;2.90;2.70;;;29.50;99.90;;;;;;5051947;28;20483;-76
2021/06/29 13:40:54;;;;;;;3.10;2.80;;;29.50;99.90;;;;;;5051729;28;20246;-76
2021/06/29 13:43:22;;;;;;;3.23;2.90;;;29.50;99.90;;;;;;5051708;28;20613;-76
2021/06/29 13:45:54;;;;;;;5.20;3.53;;;29.40;99.90;;;;;;5051854;28;20457;-76
2021/06/29 13:48:46;;;;;;;3.43;3.13;;;29.20;99.90;;;;;;5051837;28;20439;-77